Time;durP1;ratioP1;P1;durP2;ratioP2;P2;SDS_P1;SDS_P2;PMS_P1;PMS_P2;Temp;Humidity;BMP_temperature;BMP_pressure;BME280_temperature;BME280_humidity;BME280_pressure;Samples;Min_cycle;Max_cycle;Signal;HPM_P1;HPM_P2
2023/04/16 00:01:38;;;;;;;;;;;;;;;7.16;100.00;102100.69;4999107;28;1105;-77
2023/04/16 00:04:03;;;;;;;;;;;;;;;7.14;100.00;102097.34;5004450;28;1264;-80
2023/04/16 00:06:28;;;;;;;;;;;;;;;7.13;100.00;102093.94;4989737;28;1492;-77
2023/04/16 00:08:53;;;;;;;;;;;;;;;7.13;100.00;102098.25;4999324;28;1898;-77
2023/04/16 00:11:19;;;;;;;;;;;;;;;7.15;100.00;102096.44;4996899;28;1179;-78
2023/04/16 00:13:44;;;;;;;;;;;;;;;7.15;100.00;102096.44;4986968;28;1319;-79
2023/04/16 00:16:09;;;;;;;;;;;;;;;7.15;100.00;102096.44;5012035;28;1150;-77
2023/04/16 00:18:34;;;;;;;;;;;;;;;7.15;100.00;102101.59;5002371;28;1187;-78
2023/04/16 00:21:00;;;;;;;;;;;;;;;7.18;100.00;102101.47;5003311;28;1407;-79
2023/04/16 00:23:25;;;;;;;;;;;;;;;7.19;100.00;102097.97;4989555;28;1389;-78
2023/04/16 00:25:50;;;;;;;;;;;;;;;7.17;100.00;102102.38;5004963;28;1548;-79
2023/04/16 00:28:15;;;;;;;;;;;;;;;7.14;100.00;102094.78;4999863;28;1929;-77
2023/04/16 00:30:41;;;;;;;;;;;;;;;7.17;100.00;102100.63;5001903;28;1269;-78
2023/04/16 00:33:06;;;;;;;;;;;;;;;7.12;100.00;102094.00;5007175;28;1192;-77
2023/04/16 00:35:31;;;;;;;;;;;;;;;7.12;100.00;102091.44;5003440;28;1302;-78
2023/04/16 00:37:56;;;;;;;;;;;;;;;7.15;100.00;102089.53;5010203;28;1279;-77
2023/04/16 00:40:21;;;;;;;;;;;;;;;7.11;100.00;102090.59;5005950;28;1126;-77
2023/04/16 00:42:47;;;;;;;;;;;;;;;7.11;100.00;102093.19;4991162;28;1374;-77
2023/04/16 00:45:12;;;;;;;;;;;;;;;7.12;100.00;102086.28;4989589;28;1480;-80
2023/04/16 00:47:37;;;;;;;;;;;;;;;7.08;100.00;102095.88;5005109;28;1890;-77
2023/04/16 00:50:03;;;;;;;;;;;;;;;7.07;100.00;102083.91;4990505;28;1559;-77
2023/04/16 00:52:29;;;;;;;;;;;;;;;7.10;100.00;102082.91;5008551;28;1155;-78
2023/04/16 00:54:55;;;;;;;;;;;;;;;7.06;100.00;102086.56;5007072;28;1343;-78
2023/04/16 00:57:22;;;;;;;;;;;;;;;7.07;100.00;102077.91;5004599;28;1183;-78
2023/04/16 00:59:47;;;;;;;;;;;;;;;7.06;100.00;102076.25;5006651;28;1186;-77
2023/04/16 01:02:13;;;;;;;;;;;;;;;7.07;100.00;102083.06;4991007;28;1306;-77
2023/04/16 01:04:38;;;;;;;;;;;;;;;7.09;100.00;102086.41;4997736;28;1184;-77
2023/04/16 01:07:03;;;;;;;;;;;;;;;7.11;100.00;102079.41;4989887;28;1890;-78
2023/04/16 01:09:28;;;;;;;;;;;;;;;7.09;100.00;102076.09;5006920;28;1297;-80
2023/04/16 01:11:54;;;;;;;;;;;;;;;7.05;100.00;102082.28;5010640;28;1298;-77
2023/04/16 01:14:19;;;;;;;;;;;;;;;7.09;100.00;102082.06;4989869;28;1349;-80
2023/04/16 01:16:44;;;;;;;;;;;;;;;7.06;100.00;102082.25;4981497;28;1205;-77
2023/04/16 01:19:09;;;;;;;;;;;;;;;7.06;100.00;102071.91;5006586;28;1318;-78
2023/04/16 01:21:34;;;;;;;;;;;;;;;7.15;100.00;102075.78;5001489;28;1057;-77
2023/04/16 01:24:03;;;;;;;;;;;;;;;7.12;100.00;102070.78;5007907;28;1150;-77
2023/04/16 01:26:28;;;;;;;;;;;;;;;7.13;100.00;102073.28;5007676;28;1033;-77
2023/04/16 01:28:54;;;;;;;;;;;;;;;7.12;100.00;102076.78;5008783;28;1910;-77
2023/04/16 01:31:19;;;;;;;;;;;;;;;7.13;100.00;102077.63;5007646;28;1078;-78
2023/04/16 01:33:44;;;;;;;;;;;;;;;7.15;100.00;102080.97;4994573;28;1339;-77
2023/04/16 01:36:09;;;;;;;;;;;;;;;7.15;100.00;102091.28;5005734;28;1168;-77
2023/04/16 01:38:35;;;;;;;;;;;;;;;7.17;100.00;102084.31;5000627;28;1323;-78
2023/04/16 01:41:00;;;;;;;;;;;;;;;7.14;100.00;102084.44;5011042;28;1035;-77
2023/04/16 01:43:26;;;;;;;;;;;;;;;7.17;100.00;102089.47;5015532;28;974;-77
2023/04/16 01:45:52;;;;;;;;;;;;;;;7.15;100.00;102086.13;5013040;28;1111;-77
2023/04/16 01:48:17;;;;;;;;;;;;;;;7.14;100.00;102079.28;5011346;28;1898;-77
2023/04/16 01:50:42;;;;;;;;;;;;;;;7.16;100.00;102086.03;5004703;28;1198;-77
2023/04/16 01:53:08;;;;;;;;;;;;;;;7.16;100.00;102090.38;5008260;28;1488;-78
2023/04/16 01:55:33;;;;;;;;;;;;;;;7.17;100.00;102084.31;5004690;28;1158;-78
2023/04/16 01:57:59;;;;;;;;;;;;;;;7.17;100.00;102090.31;5008466;28;1091;-78
2023/04/16 02:00:24;;;;;;;;;;;;;;;7.16;100.00;102093.78;5007890;28;1150;-77
2023/04/16 02:02:49;;;;;;;;;;;;;;;7.18;100.00;102086.00;5004809;28;1166;-78
2023/04/16 02:05:14;;;;;;;;;;;;;;;7.20;100.00;102099.63;4983652;28;1467;-77
2023/04/16 02:07:40;;;;;;;;;;;;;;;7.15;100.00;102093.84;5006031;28;1898;-77
2023/04/16 02:10:06;;;;;;;;;;;;;;;7.20;100.00;102099.63;5000757;28;1156;-77
2023/04/16 02:12:31;;;;;;;;;;;;;;;7.15;100.00;102097.28;5003801;28;1145;-76
2023/04/16 02:14:56;;;;;;;;;;;;;;;7.16;100.00;102101.50;4996736;28;1419;-78
2023/04/16 02:17:21;;;;;;;;;;;;;;;7.19;100.00;102092.81;5001383;28;2384;-77
2023/04/16 02:19:47;;;;;;;;;;;;;;;7.20;100.00;102094.47;5005468;28;1287;-77
2023/04/16 02:22:12;;;;;;;;;;;;;;;7.17;100.00;102086.91;5001102;28;1329;-78
2023/04/16 02:24:37;;;;;;;;;;;;;;;7.18;100.00;102088.56;4999337;28;1270;-78
2023/04/16 02:27:02;;;;;;;;;;;;;;;7.15;100.00;102086.13;5005187;28;1953;-77
2023/04/16 02:29:28;;;;;;;;;;;;;;;7.14;100.00;102089.59;4997135;28;1185;-77
2023/04/16 02:31:53;;;;;;;;;;;;;;;7.13;100.00;102093.09;5000244;28;1609;-78
2023/04/16 02:34:18;;;;;;;;;;;;;;;7.13;100.00;102093.09;5007400;28;1269;-77
2023/04/16 02:36:43;;;;;;;;;;;;;;;7.14;100.00;102094.78;5002053;28;1091;-77
2023/04/16 02:39:08;;;;;;;;;;;;;;;7.14;100.00;102094.78;5005434;28;1140;-77
2023/04/16 02:41:34;;;;;;;;;;;;;;;7.11;100.00;102093.19;5006666;28;1168;-77
2023/04/16 02:43:59;;;;;;;;;;;;;;;7.13;100.00;102088.78;5007920;28;1456;-79
2023/04/16 02:46:25;;;;;;;;;;;;;;;7.14;100.00;102094.78;5004609;28;1338;-77
2023/04/16 02:48:50;;;;;;;;;;;;;;;7.07;100.00;102093.38;4991945;28;1988;-79
2023/04/16 02:51:15;;;;;;;;;;;;;;;7.12;100.00;102091.44;4987911;28;1978;-78
2023/04/16 02:53:44;;;;;;;;;;;;;;;7.12;100.00;102094.00;5000053;28;1179;-77
2023/04/16 02:56:10;;;;;;;;;;;;;;;7.08;100.00;102087.31;5005560;28;1330;-78
2023/04/16 02:58:35;;;;;;;;;;;;;;;7.09;100.00;102097.56;5001724;28;1428;-78
2023/04/16 03:01:00;;;;;;;;;;;;;;;7.06;100.00;102102.88;5006184;28;1440;-77
2023/04/16 03:03:25;;;;;;;;;;;;;;;7.10;100.00;102099.22;5005750;28;1322;-77
2023/04/16 03:05:51;;;;;;;;;;;;;;;7.08;100.00;102092.47;5008243;28;1083;-77
2023/04/16 03:08:16;;;;;;;;;;;;;;;7.11;100.00;102100.06;5006088;28;1901;-78
2023/04/16 03:10:41;;;;;;;;;;;;;;;7.10;100.00;102103.56;5003125;28;1192;-80
2023/04/16 03:13:06;;;;;;;;;;;;;;;7.09;100.00;102100.13;4998416;28;1174;-79
2023/04/16 03:15:32;;;;;;;;;;;;;;;7.11;100.00;102102.63;4988377;28;1339;-77
2023/04/16 03:17:57;;;;;;;;;;;;;;;7.10;100.00;102108.72;4988070;28;1181;-77
2023/04/16 03:20:22;;;;;;;;;;;;;;;7.08;100.00;102105.38;5001137;28;1139;-78
2023/04/16 03:22:48;;;;;;;;;;;;;;;7.08;100.00;102100.22;4997807;28;1274;-80
2023/04/16 03:25:13;;;;;;;;;;;;;;;7.20;100.00;102107.38;5004488;28;1096;-77
2023/04/16 03:27:39;;;;;;;;;;;;;;;7.14;100.00;102115.41;5007393;28;1949;-78
2023/04/16 03:30:05;;;;;;;;;;;;;;;7.11;100.00;102115.53;4988853;28;1248;-78
2023/04/16 03:32:30;;;;;;;;;;;;;;;7.07;100.00;102103.72;5004299;28;1120;-79
2023/04/16 03:34:55;;;;;;;;;;;;;;;7.08;100.00;102116.53;5006514;28;1030;-78
2023/04/16 03:37:20;;;;;;;;;;;;;;;7.06;100.00;102109.78;5003637;28;1054;-78
2023/04/16 03:39:46;;;;;;;;;;;;;;;7.09;100.00;102117.38;5006018;28;1387;-80
2023/04/16 03:42:11;;;;;;;;;;;;;;;7.10;100.00;102111.28;5000493;28;962;-77
2023/04/16 03:44:36;;;;;;;;;;;;;;;7.14;100.00;102120.56;5003963;28;1254;-77
2023/04/16 03:47:01;;;;;;;;;;;;;;;7.06;100.00;102117.53;4988845;28;1890;-77
2023/04/16 03:49:26;;;;;;;;;;;;;;;7.08;100.00;102120.84;4998793;28;1437;-77
2023/04/16 03:51:52;;;;;;;;;;;;;;;7.07;100.00;102114.03;5006613;28;1101;-78
2023/04/16 03:54:17;;;;;;;;;;;;;;;7.09;100.00;102122.53;5004222;28;1139;-77
2023/04/16 03:56:42;;;;;;;;;;;;;;;7.12;100.00;102123.22;5005217;28;1187;-77
2023/04/16 03:59:08;;;;;;;;;;;;;;;7.12;100.00;102122.41;5000857;28;1412;-78
2023/04/16 04:01:33;;;;;;;;;;;;;;;7.12;100.00;102117.25;5006551;28;1208;-77
2023/04/16 04:03:58;;;;;;;;;;;;;;;7.13;100.00;102124.06;4997449;28;1390;-78
2023/04/16 04:06:24;;;;;;;;;;;;;;;7.21;100.00;102121.94;5005445;28;1242;-79
2023/04/16 04:08:49;;;;;;;;;;;;;;;7.09;100.00;102112.19;5003069;28;1886;-77
2023/04/16 04:11:14;;;;;;;;;;;;;;;7.12;100.00;102123.22;5006347;28;1472;-77
2023/04/16 04:13:39;;;;;;;;;;;;;;;7.09;100.00;102122.53;5004159;28;1326;-80
2023/04/16 04:16:05;;;;;;;;;;;;;;;7.12;100.00;102122.41;4999665;28;1141;-79
2023/04/16 04:18:30;;;;;;;;;;;;;;;7.08;100.00;102121.69;4985118;28;1327;-77
2023/04/16 04:20:56;;;;;;;;;;;;;;;7.11;100.00;102115.53;4987978;28;1428;-76
2023/04/16 04:23:21;;;;;;;;;;;;;;;7.17;100.00;102120.44;5004709;28;1132;-81
2023/04/16 04:25:47;;;;;;;;;;;;;;;7.13;100.00;102118.91;5003425;28;1296;-76
2023/04/16 04:28:12;;;;;;;;;;;;;;;7.13;100.00;102121.47;4988524;28;1894;-77
2023/04/16 04:30:37;;;;;;;;;;;;;;;7.14;100.00;102130.88;4994893;28;1393;-77
2023/04/16 04:33:02;;;;;;;;;;;;;;;7.13;100.00;102124.06;4996705;28;952;-78
2023/04/16 04:35:28;;;;;;;;;;;;;;;7.16;100.00;102129.06;4997318;28;1091;-77
2023/04/16 04:37:53;;;;;;;;;;;;;;;7.14;100.00;102131.72;5000657;28;1237;-77
2023/04/16 04:40:18;;;;;;;;;;;;;;;7.12;100.00;102137.88;5006421;28;1138;-76
2023/04/16 04:42:43;;;;;;;;;;;;;;;7.11;100.00;102131.88;5004648;28;1200;-79
2023/04/16 04:45:09;;;;;;;;;;;;;;;7.13;100.00;102139.53;5004538;28;1167;-79
2023/04/16 04:47:34;;;;;;;;;;;;;;;7.16;100.00;102141.97;5003922;28;1981;-77
2023/04/16 04:49:59;;;;;;;;;;;;;;;7.13;100.00;102144.69;5001652;28;1311;-77
2023/04/16 04:52:25;;;;;;;;;;;;;;;7.11;100.00;102138.75;5004183;28;1159;-77
2023/04/16 04:54:51;;;;;;;;;;;;;;;7.13;100.00;102147.28;4987870;28;2044;-76
2023/04/16 04:57:16;;;;;;;;;;;;;;;7.12;100.00;102153.34;5005257;28;1198;-76
2023/04/16 04:59:41;;;;;;;;;;;;;;;7.15;100.00;102153.19;5001586;28;1202;-77
2023/04/16 05:02:06;;;;;;;;;;;;;;;7.16;100.00;102155.69;4998131;28;1208;-77
2023/04/16 05:04:32;;;;;;;;;;;;;;;7.17;100.00;102157.41;4990985;28;1367;-76
2023/04/16 05:06:57;;;;;;;;;;;;;;;7.17;100.00;102162.56;4987992;28;1953;-76
2023/04/16 05:09:22;;;;;;;;;;;;;;;7.19;100.00;102162.47;5002272;28;1154;-77
2023/04/16 05:11:48;;;;;;;;;;;;;;;7.19;100.00;102162.47;5007834;28;1271;-76
2023/04/16 05:14:13;;;;;;;;;;;;;;;7.19;100.00;102167.63;5004758;28;1119;-77
2023/04/16 05:16:38;;;;;;;;;;;;;;;7.20;100.00;102171.88;5007604;28;1389;-77
2023/04/16 05:19:03;;;;;;;;;;;;;;;7.19;100.00;102162.47;5009252;28;1049;-77
2023/04/16 05:21:29;;;;;;;;;;;;;;;7.19;100.00;102159.91;5004325;28;1189;-79
2023/04/16 05:23:54;;;;;;;;;;;;;;;7.19;100.00;102159.91;5006864;28;1044;-77
2023/04/16 05:26:20;;;;;;;;;;;;;;;7.19;100.00;102155.56;5008538;28;1054;-77
2023/04/16 05:28:45;;;;;;;;;;;;;;;7.23;100.00;102151.13;5004778;28;1926;-78
2023/04/16 05:31:10;;;;;;;;;;;;;;;7.21;100.00;102158.06;5005060;28;1204;-76
2023/04/16 05:33:35;;;;;;;;;;;;;;;7.21;100.00;102162.41;5008644;28;1143;-76
2023/04/16 05:36:01;;;;;;;;;;;;;;;7.19;100.00;102165.06;5009175;28;1113;-78
2023/04/16 05:38:26;;;;;;;;;;;;;;;7.21;100.00;102170.97;5005791;28;1091;-79
2023/04/16 05:40:51;;;;;;;;;;;;;;;7.22;100.00;102170.06;5000465;28;1062;-78
2023/04/16 05:43:16;;;;;;;;;;;;;;;7.22;100.00;102174.38;5008747;28;1083;-76
2023/04/16 05:45:41;;;;;;;;;;;;;;;7.23;100.00;102176.91;5008920;28;1136;-77
2023/04/16 05:48:08;;;;;;;;;;;;;;;7.22;100.00;102175.22;4989053;28;1947;-77
2023/04/16 05:50:33;;;;;;;;;;;;;;;7.19;100.00;102167.63;4990623;28;1275;-77
2023/04/16 05:52:58;;;;;;;;;;;;;;;7.23;100.00;102176.91;4999367;28;1472;-77
2023/04/16 05:55:24;;;;;;;;;;;;;;;7.23;100.00;102176.09;5008667;28;1028;-79
2023/04/16 05:57:49;;;;;;;;;;;;;;;7.24;100.00;102188.06;5005312;28;1245;-76
2023/04/16 06:00:14;;;;;;;;;;;;;;;7.24;100.00;102188.91;4998882;28;1088;-78
2023/04/16 06:02:39;;;;;;;;;;;;;;;7.24;100.00;102188.91;4982952;28;1300;-78
2023/04/16 06:05:05;;;;;;;;;;;;;;;7.25;100.00;102190.59;5007336;28;1190;-77
2023/04/16 06:07:30;;;;;;;;;;;;;;;7.27;100.00;102198.25;4989368;28;1945;-77
2023/04/16 06:09:55;;;;;;;;;;;;;;;7.27;100.00;102199.06;5003741;28;1166;-76
2023/04/16 06:12:20;;;;;;;;;;;;;;;7.28;100.00;102200.75;5006237;28;1160;-78
2023/04/16 06:14:46;;;;;;;;;;;;;;;7.29;100.00;102197.28;5006737;28;1173;-78
2023/04/16 06:17:11;;;;;;;;;;;;;;;7.31;100.00;102195.47;4997700;28;1700;-79
2023/04/16 06:19:36;;;;;;;;;;;;;;;7.31;100.00;102199.78;4989641;28;1418;-77
2023/04/16 06:22:01;;;;;;;;;;;;;;;7.36;100.00;102203.00;5000607;28;1129;-77
2023/04/16 06:24:27;;;;;;;;;;;;;;;7.34;100.00;102205.66;4990288;28;1279;-77
2023/04/16 06:26:53;;;;;;;;;;;;;;;7.33;100.00;102203.97;5004510;28;1964;-80
2023/04/16 06:29:18;;;;;;;;;;;;;;;7.33;100.00;102209.13;5003973;28;1385;-77
2023/04/16 06:31:43;;;;;;;;;;;;;;;7.31;100.00;102198.03;5002687;28;1185;-76
2023/04/16 06:34:09;;;;;;;;;;;;;;;7.31;100.00;102210.94;4989413;28;1332;-76
2023/04/16 06:36:36;;;;;;;;;;;;;;;7.34;100.00;102210.81;5005413;28;1211;-77
2023/04/16 06:39:01;;;;;;;;;;;;;;;7.37;100.00;102204.66;5001574;28;1152;-76
2023/04/16 06:41:27;;;;;;;;;;;;;;;7.34;100.00;102205.66;4990379;28;1208;-77
2023/04/16 06:43:52;;;;;;;;;;;;;;;7.40;100.00;102205.38;5005927;28;1483;-77
2023/04/16 06:46:18;;;;;;;;;;;;;;;7.38;100.00;102212.31;5003584;28;1122;-77
2023/04/16 06:48:43;;;;;;;;;;;;;;;7.36;100.00;102211.56;5001107;28;1968;-77
2023/04/16 06:51:08;;;;;;;;;;;;;;;7.37;100.00;102226.16;5007014;28;1433;-76
2023/04/16 06:53:33;;;;;;;;;;;;;;;7.39;100.00;102229.47;5003368;28;2063;-77
2023/04/16 06:55:59;;;;;;;;;;;;;;;7.40;100.00;102227.78;5007416;28;1073;-77
2023/04/16 06:58:24;;;;;;;;;;;;;;;7.41;100.00;102238.00;5005337;28;1168;-77
2023/04/16 07:00:49;;;;;;;;;;;;;;;7.47;100.00;102236.06;4987297;28;1464;-77
2023/04/16 07:03:15;;;;;;;;;;;;;;;7.43;100.00;102230.19;4997984;28;1235;-77
2023/04/16 07:05:40;;;;;;;;;;;;;;;7.44;100.00;102237.84;4987865;28;1424;-76
2023/04/16 07:08:05;;;;;;;;;;;;;;;7.53;100.00;102246.09;4999732;28;1969;-79
2023/04/16 07:10:30;;;;;;;;;;;;;;;7.52;100.00;102240.09;5001121;28;1199;-78
2023/04/16 07:12:55;;;;;;;;;;;;;;;7.52;100.00;102236.69;5004657;28;1218;-78
2023/04/16 07:15:21;;;;;;;;;;;;;;;7.52;100.00;102245.28;5007281;28;990;-78
2023/04/16 07:17:46;;;;;;;;;;;;;;;7.54;100.00;102250.34;4987466;28;1196;-77
2023/04/16 07:20:11;;;;;;;;;;;;;;;7.56;100.00;102246.78;5001493;28;1440;-77
2023/04/16 07:22:36;;;;;;;;;;;;;;;7.59;100.00;102250.97;5007899;28;1089;-78
2023/04/16 07:25:02;;;;;;;;;;;;;;;7.63;100.00;102257.69;5002414;28;1028;-77
2023/04/16 07:27:27;;;;;;;;;;;;;;;7.62;100.00;102256.00;5005784;28;1886;-78
2023/04/16 07:29:53;;;;;;;;;;;;;;;7.62;100.00;102258.56;4989197;28;1260;-78
2023/04/16 07:32:18;;;;;;;;;;;;;;;7.63;100.00;102257.69;4983614;28;1395;-77
2023/04/16 07:34:44;;;;;;;;;;;;;;;7.64;100.00;102257.63;5004900;28;1117;-77
2023/04/16 07:37:09;;;;;;;;;;;;;;;7.65;100.00;102264.44;5006998;28;1093;-78
2023/04/16 07:39:34;;;;;;;;;;;;;;;7.65;100.00;102261.88;5005849;28;1145;-78
2023/04/16 07:42:00;;;;;;;;;;;;;;;7.69;100.00;102262.56;5003646;28;1267;-77
2023/04/16 07:44:25;;;;;;;;;;;;;;;7.69;100.00;102262.56;5006553;28;1136;-77
2023/04/16 07:46:50;;;;;;;;;;;;;;;7.73;100.00;102271.81;4992374;28;1882;-77
2023/04/16 07:49:15;;;;;;;;;;;;;;;7.70;100.00;102279.72;5002344;28;1210;-78
2023/04/16 07:51:41;;;;;;;;;;;;;;;7.71;100.00;102278.81;4994808;28;1318;-77
2023/04/16 07:54:06;;;;;;;;;;;;;;;7.72;100.00;102285.66;4989137;28;1327;-77
2023/04/16 07:56:31;;;;;;;;;;;;;;;7.72;100.00;102283.06;4981095;28;1213;-77
2023/04/16 07:58:56;;;;;;;;;;;;;;;7.73;100.00;102292.50;5004710;28;1322;-77
2023/04/16 08:01:22;;;;;;;;;;;;;;;7.74;100.00;102289.00;4986982;28;1520;-80
2023/04/16 08:03:47;;;;;;;;;;;;;;;7.76;100.00;102289.78;4992617;28;1236;-77
2023/04/16 08:06:12;;;;;;;;;;;;;;;7.76;100.00;102294.94;4987985;28;1437;-78
2023/04/16 08:08:38;;;;;;;;;;;;;;;7.76;100.00;102297.53;5002092;28;1951;-78
2023/04/16 08:11:03;;;;;;;;;;;;;;;7.79;100.00;102310.28;5004409;28;1239;-77
2023/04/16 08:13:28;;;;;;;;;;;;;;;7.78;100.00;102303.44;4996357;28;1484;-78
2023/04/16 08:15:53;;;;;;;;;;;;;;;7.78;100.00;102308.59;4976062;28;1383;-77
2023/04/16 08:18:18;;;;;;;;;;;;;;;7.82;100.00;102310.16;5004393;28;1159;-78
2023/04/16 08:20:44;;;;;;;;;;;;;;;7.81;100.00;102308.47;4988123;28;1205;-76
2023/04/16 08:23:09;;;;;;;;;;;;;;;7.83;100.00;102311.81;5005368;28;1140;-79
2023/04/16 08:25:34;;;;;;;;;;;;;;;7.86;100.00;102316.88;5004495;28;1100;-79
2023/04/16 08:28:00;;;;;;;;;;;;;;;7.88;100.00;102315.03;5003539;28;1906;-77
2023/04/16 08:30:25;;;;;;;;;;;;;;;7.92;100.00;102316.56;5002560;28;1175;-78
2023/04/16 08:32:50;;;;;;;;;;;;;;;7.93;100.00;102313.06;4984564;28;1351;-78
2023/04/16 08:35:15;;;;;;;;;;;;;;;7.94;100.00;102319.09;4996967;28;1116;-78
2023/04/16 08:37:41;;;;;;;;;;;;;;;7.95;100.00;102313.00;5000769;28;1240;-78
2023/04/16 08:40:06;;;;;;;;;;;;;;;7.94;100.00;102314.75;4979510;28;1508;-78
2023/04/16 08:42:35;;;;;;;;;;;;;;;7.93;100.00;102318.25;5004260;28;1306;-77
2023/04/16 08:45:12;;;;;;;;;;;;;;;7.94;100.00;102325.09;5006523;28;1296;-79
2023/04/16 08:47:37;;;;;;;;;;;;;;;7.97;100.00;102324.94;5007402;28;1898;-80
2023/04/16 08:50:04;;;;;;;;;;;;;;;7.99;100.00;102328.28;5007967;28;1442;-77
2023/04/16 08:52:30;;;;;;;;;;;;;;;8.04;100.00;102329.84;5008749;28;1317;-78
2023/04/16 08:55:01;;;;;;;;;;;;;;;8.07;100.00;102329.66;5008156;28;1233;-77
2023/04/16 08:57:39;;;;;;;;;;;;;;;8.08;100.00;102331.34;4998823;28;1519;-78
2023/04/16 09:00:06;;;;;;;;;;;;;;;8.09;100.00;102333.88;5005488;28;1091;-77
2023/04/16 09:02:31;;;;;;;;;;;;;;;8.12;100.00;102338.88;5009037;28;1119;-79
2023/04/16 09:04:58;;;;;;;;;;;;;;;8.16;100.00;102342.16;4991345;28;1229;-78
2023/04/16 09:07:24;;;;;;;;;;;;;;;8.15;100.00;102337.91;5001870;28;1918;-78
2023/04/16 09:09:51;;;;;;;;;;;;;;;8.12;100.00;102343.22;5006989;28;1186;-78
2023/04/16 09:12:16;;;;;;;;;;;;;;;8.13;100.00;102345.72;5001751;28;1180;-77
2023/04/16 09:14:43;;;;;;;;;;;;;;;8.15;100.00;102343.09;4990468;28;1191;-78
2023/04/16 09:17:08;;;;;;;;;;;;;;;8.16;100.00;102347.34;5001021;28;1258;-78
2023/04/16 09:19:34;;;;;;;;;;;;;;;8.17;100.00;102346.44;5005392;28;1242;-78
2023/04/16 09:21:59;;;;;;;;;;;;;;;8.17;100.00;102341.25;5009162;28;1069;-78
2023/04/16 09:24:24;;;;;;;;;;;;;;;8.19;100.00;102347.19;5008201;28;1156;-79
2023/04/16 09:26:51;;;;;;;;;;;;;;;8.22;100.00;102344.47;5008645;28;1117;-79
2023/04/16 09:29:33;;;;;;;;;;;;;;;8.22;100.00;102352.22;5008816;28;1902;-80
2023/04/16 09:32:05;;;;;;;;;;;;;;;8.26;100.00;102351.19;5001927;28;1144;-77
2023/04/16 09:34:32;;;;;;;;;;;;;;;8.29;100.00;102350.19;5007005;28;1109;-77
2023/04/16 09:37:12;;;;;;;;;;;;;;;8.37;100.00;102355.84;5007397;28;1351;-77
2023/04/16 09:39:38;;;;;;;;;;;;;;;8.36;100.00;102357.59;5005160;28;1168;-77
2023/04/16 09:42:04;;;;;;;;;;;;;;;8.37;100.00;102354.13;5009074;28;1097;-78
2023/04/16 09:44:36;;;;;;;;;;;;;;;8.43;100.00;102368.47;5004883;28;1235;-78
2023/04/16 09:47:08;;;;;;;;;;;;;;;8.43;100.00;102374.50;5008423;28;1914;-78
2023/04/16 09:49:43;;;;;;;;;;;;;;;8.45;100.00;102367.50;4984065;28;1308;-79
2023/04/16 09:52:18;;;;;;;;;;;;;;;8.48;100.00;102372.50;5001729;28;1171;-79
2023/04/16 09:54:46;;;;;;;;;;;;;;;8.53;100.00;102364.53;4997672;28;1209;-79
2023/04/16 09:57:11;;;;;;;;;;;;;;;8.58;100.00;102372.09;4998533;28;1340;-80
2023/04/16 09:59:36;;;;;;;;;;;;;;;8.62;100.00;102373.63;4998341;28;1019;-78
2023/04/16 10:02:02;;;;;;;;;;;;;;;8.65;100.00;102368.28;4996819;28;1027;-78
2023/04/16 10:04:27;;;;;;;;;;;;;;;8.68;100.00;102373.31;5000712;28;1402;-78
2023/04/16 10:07:05;;;;;;;;;;;;;;;8.68;100.00;102374.16;5006615;28;1086;-78
2023/04/16 10:09:36;;;;;;;;;;;;;;;8.72;100.00;102374.84;5001583;28;1097;-82
2023/04/16 10:12:02;;;;;;;;;;;;;;;8.75;100.00;102374.69;4981608;28;1319;-79
2023/04/16 10:14:27;;;;;;;;;;;;;;;8.75;100.00;102380.69;4990216;28;1517;-79
2023/04/16 10:16:54;;;;;;;;;;;;;;;8.81;100.00;102382.13;4982117;28;1200;-78
2023/04/16 10:19:19;;;;;;;;;;;;;;;8.84;100.00;102379.41;5004758;28;1293;-78
2023/04/16 10:21:45;;;;;;;;;;;;;;;8.87;100.00;102368.91;5005537;28;1323;-78
2023/04/16 10:24:11;;;;;;;;;;;;;;;8.91;100.00;102380.78;5003346;28;1187;-79
2023/04/16 10:26:37;;;;;;;;;;;;;;;8.91;100.00;102382.53;5005699;28;1123;-78
2023/04/16 10:29:03;;;;;;;;;;;;;;;8.92;100.00;102385.03;5004013;28;1967;-78
2023/04/16 10:31:28;;;;;;;;;;;;;;;8.95;100.00;102382.31;4992311;28;1291;-78
2023/04/16 10:33:54;;;;;;;;;;;;;;;8.95;100.00;102392.66;5004802;28;1134;-76
2023/04/16 10:36:22;;;;;;;;;;;;;;;8.94;100.00;102385.78;5000735;28;1500;-79
2023/04/16 10:38:51;;;;;;;;;;;;;;;8.97;100.00;102385.66;5006816;28;1425;-76
2023/04/16 10:41:19;;;;;;;;;;;;;;;8.94;100.00;102396.13;5005692;28;1126;-77
2023/04/16 10:43:45;;;;;;;;;;;;;;;8.97;100.00;102387.41;5007893;28;1320;-77
2023/04/16 10:46:16;;;;;;;;;;;;;;;9.01;100.00;102384.59;4985774;28;1465;-82
2023/04/16 10:48:42;;;;;;;;;;;;;;;9.02;100.00;102388.00;5006656;28;1902;-78
2023/04/16 10:51:07;;;;;;;;;;;;;;;9.09;100.00;102389.38;4992385;28;1185;-79
2023/04/16 10:53:32;;;;;;;;;;;;;;;9.05;100.00;102387.84;4991176;28;1488;-78
2023/04/16 10:55:57;;;;;;;;;;;;;;;9.04;100.00;102387.00;4997955;28;1086;-77
2023/04/16 10:58:26;;;;;;;;;;;;;;;9.03;100.00;102380.16;5001835;28;1512;-78
2023/04/16 11:00:51;;;;;;;;;;;;;;;9.04;100.00;102387.00;5002408;28;1302;-77
2023/04/16 11:03:17;;;;;;;;;;;;;;;9.07;100.00;102380.03;5003733;28;1235;-77
2023/04/16 11:05:48;;;;;;;;;;;;;;;9.08;100.00;102387.69;5002407;28;1179;-79
2023/04/16 11:08:14;;;;;;;;;;;;;;;9.14;100.00;102389.16;4989538;28;1918;-77
2023/04/16 11:10:40;;;;;;;;;;;;;;;9.21;100.00;102377.56;5003961;28;1147;-77
2023/04/16 11:13:06;;;;;;;;;;;;;;;9.28;100.00;102379.75;5002441;28;1166;-77
2023/04/16 11:15:32;;;;;;;;;;;;;;;9.32;100.00;102380.44;4986284;28;1355;-78
2023/04/16 11:17:57;;;;;;;;;;;;;;;9.36;100.00;102384.56;4996687;28;1147;-76
2023/04/16 11:20:27;;;;;;;;;;;;;;;9.36;100.00;102387.13;5000348;28;1364;-79
2023/04/16 11:22:53;;;;;;;;;;;;;;;9.42;100.00;102381.66;5004942;28;1219;-77
2023/04/16 11:25:23;;;;;;;;;;;;;;;9.40;100.00;102380.88;4989538;28;1382;-78
2023/04/16 11:27:49;;;;;;;;;;;;;;;9.39;100.00;102384.38;5003337;28;1922;-79
2023/04/16 11:30:14;;;;;;;;;;;;;;;9.41;100.00;102384.31;4988512;28;1268;-78
2023/04/16 11:32:40;;;;;;;;;;;;;;;9.45;100.00;102386.66;5002645;28;1117;-80
2023/04/16 11:35:14;;;;;;;;;;;;;;;9.52;100.00;102388.03;5003103;28;1058;-80
2023/04/16 11:37:40;;;;;;;;;;;;;;;9.48;100.00;102390.84;5006425;28;1043;-80
2023/04/16 11:40:07;;;;;;;;;;;;;;;9.38;100.00;102387.06;5005908;28;1071;-80
2023/04/16 11:42:35;;;;;;;;;;;;;;;9.49;100.00;102383.00;5006870;28;1089;-80
2023/04/16 11:45:01;;;;;;;;;;;;;;;9.44;100.00;102390.16;5004002;28;1225;-79
2023/04/16 11:47:26;;;;;;;;;;;;;;;9.41;100.00;102395.50;5005470;28;1957;-80
2023/04/16 11:49:52;;;;;;;;;;;;;;;9.42;100.00;102392.00;4988700;28;1420;-78
2023/04/16 11:52:26;;;;;;;;;;;;;;;9.34;100.00;102394.13;5007283;28;1060;-78
2023/04/16 11:54:51;;;;;;;;;;;;;;;9.36;100.00;102387.13;4987845;28;1218;-79
2023/04/16 11:57:22;;;;;;;;;;;;;;;9.33;100.00;102392.47;4997638;28;1107;-79
2023/04/16 11:59:48;;;;;;;;;;;;;;;9.42;100.00;102397.19;4985086;28;1202;-79
2023/04/16 12:02:13;;;;;;;;;;;;;;;9.42;100.00;102397.19;5002697;28;1136;-79
2023/04/16 12:04:38;;;;;;;;;;;;;;;9.42;100.00;102402.34;4999474;28;1218;-79
2023/04/16 12:07:05;;;;;;;;;;;;;;;9.40;100.00;102408.50;4989501;28;1987;-78
2023/04/16 12:09:30;;;;;;;;;;;;;;;9.43;100.00;102404.03;5001685;28;1245;-78
2023/04/16 12:11:55;;;;;;;;;;;;;;;9.46;100.00;102403.88;4997437;28;1484;-78
2023/04/16 12:14:21;;;;;;;;;;;;;;;9.43;100.00;102405.78;5002528;28;1254;-81
2023/04/16 12:16:46;;;;;;;;;;;;;;;9.40;100.00;102400.75;5003550;28;1203;-81
2023/04/16 12:19:12;;;;;;;;;;;;;;;9.45;100.00;102412.53;4992132;28;1389;-78
2023/04/16 12:21:38;;;;;;;;;;;;;;;9.46;100.00;102416.84;5004674;28;1408;-78
2023/04/16 12:24:04;;;;;;;;;;;;;;;9.48;100.00;102416.75;4982679;28;1319;-80
2023/04/16 12:26:40;;;;;;;;;;;;;;;9.45;100.00;102417.72;4987160;28;1315;-79
2023/04/16 12:29:15;;;;;;;;;;;;;;;9.44;100.00;102416.06;4989055;28;1906;-79
2023/04/16 12:31:41;;;;;;;;;;;;;;;9.37;100.00;102419.88;5004961;28;1063;-79
2023/04/16 12:34:06;;;;;;;;;;;;;;;9.46;100.00;102416.84;5005024;28;1367;-80
2023/04/16 12:36:31;;;;;;;;;;;;;;;9.39;100.00;102414.63;5002846;28;1269;-79
2023/04/16 12:38:57;;;;;;;;;;;;;;;9.40;100.00;102414.53;4987955;28;1420;-77
2023/04/16 12:41:22;;;;;;;;;;;;;;;9.41;100.00;102426.59;5001587;28;1329;-78